National Weather Service Raw Text Product

Displaying AFOS PIL: TAFOTM Received: 2018-04-17 11:42 UTC


626 
FTUS43 KDMX 171142
TAFOTM
TAF
KOTM 171142Z 1712/1812 33007KT P6SM SCT250
     FM171400 03006KT P6SM SCT250
     FM180400 07013KT P6SM BKN130
     FM180900 08017G25KT P6SM -RA BKN040=